Terminal Aerodrome Forecast
Issued by NWS Wilmington, OH

Current Version | Previous Version | Graphics & Text | Print | Product List | Glossary On
Versions: 1 2 3 4 5 6 7 8 9 10 11 12 13 14 15 16 17 18 19 20 21 22 23
875
FTUS41 KILN 010244 AAA
TAFCMH
TAF AMD
KCMH 010244Z 0103/0124 14010KT 4SM -SHRA OVC008
      TEMPO 0104/0108 2SM SHRA
     FM010800 17006KT 4SM BR OVC006
     FM011500 23006KT P6SM BKN015
     FM011800 26006KT P6SM FEW025 BKN035
     FM012200 28006KT P6SM VCSH SCT025 BKN040=

USA.gov is the U.S. government's official web portal to all federal, state and local government web resources and services.